createdAt,value
2018-08-13T00:01:42.244Z,19.00
2018-08-13T00:05:45.081Z,19.00
2018-08-13T00:09:47.696Z,18.70
2018-08-13T00:13:50.395Z,18.50
2018-08-13T00:17:52.983Z,18.40
2018-08-13T00:21:55.523Z,18.40
2018-08-13T00:25:58.125Z,18.40
2018-08-13T00:30:00.678Z,18.40
2018-08-13T00:34:03.248Z,18.30
2018-08-13T00:38:06.304Z,18.30
2018-08-13T00:42:08.926Z,18.30
2018-08-13T00:46:11.611Z,18.20
2018-08-13T00:50:15.111Z,18.70
2018-08-13T00:54:17.722Z,18.40
2018-08-13T00:58:20.421Z,18.10
2018-08-13T01:02:23.094Z,18.00
2018-08-13T01:06:25.648Z,17.90
2018-08-13T01:10:28.236Z,18.20
2018-08-13T01:14:30.946Z,18.20
2018-08-13T01:18:33.581Z,18.40
2018-08-13T01:22:42.869Z,18.50
2018-08-13T01:26:45.426Z,18.30
2018-08-13T01:30:48.147Z,18.20
2018-08-13T01:34:50.781Z,18.50
2018-08-13T01:38:53.378Z,18.40
2018-08-13T01:42:56.000Z,18.30
2018-08-13T01:46:58.607Z,18.20
2018-08-13T01:51:01.230Z,18.00
2018-08-13T01:55:04.735Z,18.30
2018-08-13T01:59:07.356Z,18.40
2018-08-13T02:03:09.931Z,18.10
2018-08-13T02:07:12.568Z,17.90
2018-08-13T02:11:15.204Z,18.00
2018-08-13T02:15:17.792Z,18.50
2018-08-13T02:19:20.534Z,18.70
2018-08-13T02:23:23.189Z,18.70
2018-08-13T02:27:25.795Z,18.20
2018-08-13T02:31:28.514Z,18.30
2018-08-13T02:35:31.105Z,18.10
2018-08-13T02:39:33.690Z,18.50
2018-08-13T02:43:36.300Z,18.20
2018-08-13T02:47:39.001Z,18.40
2018-08-13T02:51:41.585Z,18.60
2018-08-13T02:55:44.163Z,18.10
2018-08-13T02:59:46.807Z,18.10
2018-08-13T03:03:49.429Z,18.10
2018-08-13T03:07:52.077Z,18.30
2018-08-13T03:11:54.629Z,18.00
2018-08-13T03:15:57.281Z,18.10
2018-08-13T03:20:00.632Z,18.60
2018-08-13T03:24:03.272Z,19.00
2018-08-13T03:28:05.880Z,18.90
2018-08-13T03:32:08.500Z,18.30
2018-08-13T03:36:11.072Z,17.90
2018-08-13T03:40:13.701Z,18.20
2018-08-13T03:48:25.501Z,19.20
2018-08-13T03:52:28.072Z,19.20
2018-08-13T03:56:30.634Z,19.70
2018-08-13T04:00:33.249Z,19.80
2018-08-13T04:04:35.991Z,19.10
2018-08-13T04:08:38.590Z,18.60
2018-08-13T04:12:42.435Z,18.20
2018-08-13T04:16:49.912Z,17.90
2018-08-13T04:20:52.576Z,17.80
2018-08-13T04:24:55.156Z,19.20
2018-08-13T04:28:57.710Z,19.00
2018-08-13T04:33:00.395Z,18.20
2018-08-13T04:37:03.066Z,18.60
2018-08-13T04:41:05.679Z,18.70
2018-08-13T04:45:09.357Z,18.90
2018-08-13T04:49:11.946Z,19.10
2018-08-13T04:53:14.569Z,19.70
2018-08-13T04:57:17.199Z,19.80
2018-08-13T05:01:19.832Z,19.80
2018-08-13T05:05:22.444Z,19.60
2018-08-13T05:09:25.024Z,20.00
2018-08-13T05:13:27.689Z,19.80
2018-08-13T05:17:30.325Z,19.50
2018-08-13T05:21:33.031Z,18.90
2018-08-13T05:25:35.746Z,18.50
2018-08-13T05:29:38.315Z,18.50
2018-08-13T05:33:41.425Z,18.40
2018-08-13T05:37:44.156Z,18.60
2018-08-13T05:41:46.749Z,18.50
2018-08-13T05:45:49.293Z,18.90
2018-08-13T05:49:51.997Z,18.60
2018-08-13T05:53:54.610Z,18.40
2018-08-13T05:57:57.205Z,18.60
2018-08-13T06:01:59.786Z,18.70
2018-08-13T06:06:02.539Z,19.00
2018-08-13T06:10:06.543Z,19.40
2018-08-13T06:14:09.120Z,19.30
2018-08-13T06:18:11.785Z,19.20
2018-08-13T06:22:14.380Z,19.30
2018-08-13T06:26:16.944Z,19.10
2018-08-13T06:30:19.558Z,19.20
2018-08-13T06:34:22.154Z,19.40
2018-08-13T06:38:24.760Z,19.50
2018-08-13T06:42:27.404Z,19.60
2018-08-13T06:46:29.985Z,19.50
2018-08-13T06:50:32.521Z,19.60
2018-08-13T06:54:35.129Z,19.60
2018-08-13T06:58:37.813Z,19.40
2018-08-13T07:02:40.539Z,19.50
2018-08-13T07:06:43.388Z,19.50
2018-08-13T07:10:45.977Z,19.50
2018-08-13T07:14:48.714Z,19.80
2018-08-13T07:18:51.239Z,19.90
2018-08-13T07:22:53.902Z,19.80
2018-08-13T07:26:56.564Z,19.60
2018-08-13T07:30:59.141Z,19.70
2018-08-13T07:35:01.860Z,19.60
2018-08-13T07:39:07.640Z,19.50
2018-08-13T07:43:10.083Z,19.30
2018-08-13T07:47:12.765Z,19.20
2018-08-13T07:51:15.351Z,19.10
2018-08-13T07:55:18.058Z,19.00
2018-08-13T07:59:20.791Z,18.90
2018-08-13T08:03:23.392Z,19.00
2018-08-13T08:07:26.007Z,19.00
2018-08-13T08:11:28.594Z,19.40
2018-08-13T08:15:31.294Z,19.60
2018-08-13T08:19:33.975Z,19.80
2018-08-13T08:23:36.660Z,19.80
2018-08-13T08:27:39.567Z,20.00
2018-08-13T08:31:42.217Z,19.90
2018-08-13T08:35:44.912Z,19.90
2018-08-13T08:39:47.543Z,20.10
2018-08-13T08:43:51.013Z,20.00
2018-08-13T08:47:55.196Z,20.10
2018-08-13T08:51:57.797Z,20.30
2018-08-13T08:56:00.371Z,20.20
2018-08-13T09:00:03.060Z,20.00
2018-08-13T09:04:06.298Z,20.10
2018-08-13T09:08:08.924Z,20.10
2018-08-13T09:12:11.617Z,20.10
2018-08-13T09:16:14.287Z,20.20
2018-08-13T09:20:28.197Z,20.20
2018-08-13T09:24:42.276Z,20.30
2018-08-13T09:28:56.013Z,20.30
2018-08-13T09:33:09.993Z,20.30
2018-08-13T09:37:12.605Z,20.40
2018-08-13T09:41:15.145Z,20.50
2018-08-13T09:45:17.736Z,20.40
2018-08-13T09:49:20.278Z,20.50
2018-08-13T09:53:22.827Z,20.50
2018-08-13T09:57:25.349Z,20.50
2018-08-13T10:01:27.981Z,20.60
2018-08-13T10:05:30.602Z,20.80
2018-08-13T10:09:33.176Z,21.10
2018-08-13T10:13:35.810Z,22.20
2018-08-13T10:17:38.635Z,22.50
2018-08-13T10:21:41.229Z,23.10
2018-08-13T10:25:43.860Z,23.80
2018-08-13T10:29:46.437Z,24.40
2018-08-13T10:33:49.074Z,25.00
2018-08-13T10:37:51.682Z,25.00
2018-08-13T10:41:54.402Z,24.60
2018-08-13T10:45:56.980Z,24.80
2018-08-13T10:49:59.747Z,25.70
2018-08-13T10:54:02.339Z,26.00
2018-08-13T10:58:05.563Z,26.00
2018-08-13T11:02:08.177Z,25.40
2018-08-13T11:06:10.917Z,25.00
2018-08-13T11:10:14.591Z,24.40
2018-08-13T11:14:17.297Z,24.50
2018-08-13T11:18:19.858Z,24.70
2018-08-13T11:22:22.469Z,25.60
2018-08-13T11:26:25.094Z,26.20
2018-08-13T11:30:27.720Z,25.80
2018-08-13T11:34:30.271Z,25.80
2018-08-13T11:38:32.924Z,25.50
2018-08-13T11:42:35.515Z,25.80
2018-08-13T11:46:38.199Z,25.60
2018-08-13T11:50:40.835Z,25.10
2018-08-13T11:54:43.482Z,25.00
2018-08-13T11:58:46.035Z,25.10
2018-08-13T12:02:48.736Z,24.80
2018-08-13T12:06:51.350Z,24.80
2018-08-13T12:10:54.122Z,25.00
2018-08-13T12:14:56.653Z,25.20
2018-08-13T12:18:59.316Z,25.50
2018-08-13T12:23:02.114Z,25.00
2018-08-13T12:27:05.012Z,25.00
2018-08-13T12:31:07.728Z,25.10
2018-08-13T12:35:10.375Z,24.70
2018-08-13T12:39:12.982Z,24.40
2018-08-13T12:43:15.617Z,24.20
2018-08-13T12:47:18.348Z,24.10
2018-08-13T12:51:20.980Z,24.20
2018-08-13T12:55:23.613Z,24.20
2018-08-13T12:59:26.220Z,24.30
2018-08-13T13:03:29.186Z,24.40
2018-08-13T13:07:31.901Z,24.10
2018-08-13T13:11:34.542Z,24.20
2018-08-13T13:15:37.143Z,23.90
2018-08-13T13:19:39.837Z,23.90
2018-08-13T13:23:42.402Z,23.60
2018-08-13T13:27:44.993Z,23.50
2018-08-13T13:31:47.595Z,23.30
2018-08-13T13:35:50.156Z,23.10
2018-08-13T13:39:52.797Z,22.80
2018-08-13T13:43:55.351Z,22.60
2018-08-13T13:47:57.958Z,22.60
2018-08-13T13:52:01.031Z,22.40
2018-08-13T13:56:03.765Z,22.20
2018-08-13T14:00:10.000Z,22.20
2018-08-13T14:04:12.660Z,21.90
2018-08-13T14:08:15.264Z,21.80
2018-08-13T14:12:17.836Z,21.70
2018-08-13T14:16:20.426Z,21.50
2018-08-13T14:20:23.081Z,21.40
2018-08-13T14:24:25.823Z,21.40
2018-08-13T14:28:28.531Z,21.50
2018-08-13T14:32:31.180Z,21.20
2018-08-13T14:36:33.868Z,20.60
2018-08-13T14:40:36.468Z,19.80
2018-08-13T14:44:39.125Z,19.70
2018-08-13T14:48:41.724Z,19.50
2018-08-13T14:52:45.606Z,19.40
2018-08-13T14:56:48.228Z,19.10
2018-08-13T15:00:50.816Z,19.00
2018-08-13T15:04:53.503Z,18.90
2018-08-13T15:08:56.138Z,19.00
2018-08-13T15:12:58.865Z,19.30
2018-08-13T15:17:01.469Z,19.60
2018-08-13T15:21:04.227Z,19.90
2018-08-13T15:25:07.115Z,20.00
2018-08-13T15:29:09.681Z,20.00
2018-08-13T15:33:12.588Z,19.80
2018-08-13T15:37:15.256Z,19.80
2018-08-13T15:41:17.881Z,19.70
2018-08-13T15:45:22.493Z,19.70
2018-08-13T15:49:25.089Z,19.80
2018-08-13T15:53:27.703Z,19.70
2018-08-13T15:57:30.262Z,19.70
2018-08-13T16:01:32.857Z,19.80
2018-08-13T16:05:35.539Z,20.00
2018-08-13T16:09:38.152Z,20.20
2018-08-13T16:13:40.752Z,20.20
2018-08-13T16:17:43.476Z,20.30
2018-08-13T16:21:46.036Z,20.30
2018-08-13T16:25:48.674Z,20.60
2018-08-13T16:29:51.332Z,20.30
2018-08-13T16:33:54.062Z,20.10
2018-08-13T16:37:56.977Z,20.00
2018-08-13T16:41:59.607Z,20.10
2018-08-13T16:46:02.229Z,19.90
2018-08-13T16:50:13.493Z,19.80
2018-08-13T16:54:16.044Z,19.60
2018-08-13T16:58:18.672Z,19.60
2018-08-13T17:02:21.266Z,19.60
2018-08-13T17:06:23.896Z,19.70
2018-08-13T17:10:27.838Z,19.70
2018-08-13T17:14:33.918Z,19.60
2018-08-13T17:18:36.914Z,19.40
2018-08-13T17:22:39.478Z,19.30
2018-08-13T17:26:42.224Z,19.20
2018-08-13T17:30:44.791Z,19.10
2018-08-13T17:34:47.348Z,19.20
2018-08-13T17:38:49.978Z,19.10
2018-08-13T17:42:54.418Z,19.10
2018-08-13T17:46:56.990Z,19.00
2018-08-13T17:50:59.554Z,19.10
2018-08-13T17:55:02.216Z,19.00
2018-08-13T17:59:05.067Z,18.80
2018-08-13T18:03:07.709Z,18.80
2018-08-13T18:07:10.346Z,18.80
2018-08-13T18:11:13.014Z,18.70
2018-08-13T18:15:16.318Z,18.70
2018-08-13T18:19:19.098Z,18.70
2018-08-13T18:23:21.758Z,18.60
2018-08-13T18:27:24.318Z,18.60
2018-08-13T18:31:26.977Z,18.60
2018-08-13T18:35:29.655Z,18.50
2018-08-13T18:39:32.285Z,18.50
2018-08-13T18:43:35.065Z,18.50
2018-08-13T18:47:38.173Z,18.40
2018-08-13T18:51:40.905Z,18.40
2018-08-13T18:55:43.590Z,18.40
2018-08-13T18:59:46.266Z,18.30
2018-08-13T19:03:48.887Z,18.20
2018-08-13T19:07:52.048Z,18.20
2018-08-13T19:11:56.224Z,18.10
2018-08-13T19:15:58.848Z,18.00
2018-08-13T19:20:01.496Z,18.00
2018-08-13T19:24:04.121Z,18.00
2018-08-13T19:28:06.835Z,17.90
2018-08-13T19:32:09.435Z,17.90
2018-08-13T19:36:12.114Z,17.80
2018-08-13T19:40:17.034Z,17.80
2018-08-13T19:44:19.696Z,17.80
2018-08-13T19:48:22.381Z,17.70
2018-08-13T19:52:24.983Z,17.70
2018-08-13T19:56:27.554Z,17.70
2018-08-13T20:00:30.178Z,17.60
2018-08-13T20:04:32.737Z,17.60
2018-08-13T20:08:35.379Z,17.60
2018-08-13T20:12:38.002Z,17.60
2018-08-13T20:16:40.649Z,17.50
2018-08-13T20:20:43.315Z,17.50
2018-08-13T20:24:45.974Z,17.50
2018-08-13T20:28:48.744Z,17.50
2018-08-13T20:32:52.320Z,17.50
2018-08-13T20:36:54.914Z,17.50
2018-08-13T20:40:57.524Z,17.50
2018-08-13T20:45:00.104Z,17.50
2018-08-13T20:49:02.730Z,17.40
2018-08-13T20:53:05.395Z,17.40
2018-08-13T20:57:08.135Z,17.30
2018-08-13T21:01:10.769Z,17.30
2018-08-13T21:05:13.420Z,17.30
2018-08-13T21:09:16.038Z,17.30
2018-08-13T21:13:18.925Z,17.30
2018-08-13T21:17:21.490Z,17.20
2018-08-13T21:21:24.052Z,17.30
2018-08-13T21:25:26.753Z,17.30
2018-08-13T21:29:29.384Z,17.40
2018-08-13T21:33:32.045Z,17.40
2018-08-13T21:37:35.409Z,17.40
2018-08-13T21:41:38.327Z,17.40
2018-08-13T21:45:41.025Z,17.30
2018-08-13T21:49:43.550Z,17.30
2018-08-13T21:53:46.110Z,17.40
2018-08-13T21:57:48.829Z,17.40
2018-08-13T22:01:53.296Z,17.30
2018-08-13T22:05:55.877Z,17.40
2018-08-13T22:09:58.535Z,17.30
2018-08-13T22:14:01.273Z,17.20
2018-08-13T22:18:05.845Z,17.10
2018-08-13T22:26:18.034Z,17.00
2018-08-13T22:30:20.757Z,16.90
2018-08-13T22:34:23.351Z,17.00
2018-08-13T22:38:26.102Z,17.00
2018-08-13T22:42:28.733Z,17.00
2018-08-13T22:46:31.332Z,17.00
2018-08-13T22:50:34.028Z,16.90
2018-08-13T22:54:36.704Z,17.00
2018-08-13T22:58:39.290Z,17.00
2018-08-13T23:02:42.441Z,17.10
2018-08-13T23:06:45.067Z,17.10
2018-08-13T23:10:47.637Z,17.10
2018-08-13T23:14:50.320Z,17.10
2018-08-13T23:18:52.843Z,17.20
2018-08-13T23:22:59.589Z,17.20
2018-08-13T23:27:02.283Z,17.20
2018-08-13T23:31:04.861Z,17.20
2018-08-13T23:35:07.508Z,17.20
2018-08-13T23:39:12.108Z,17.10
2018-08-13T23:43:14.804Z,17.10
2018-08-13T23:47:17.488Z,17.10
2018-08-13T23:51:20.113Z,17.20
2018-08-13T23:55:28.477Z,17.10
2018-08-13T23:59:31.298Z,17.10
